Terminal Aerodrome Forecast
Issued by NWS Tiyan, Guam

Home | Current Version | Previous Version | Text Only | Print | Product List | Glossary On
Versions: 1 2 3 4 5 6 7 8 9 10 11 12 13 14 15 16 17 18 19 20 21 22 23 24 25 26
000
FTPQ31 PGUM 160536
TAFGUM
TAF
PGUM 160536Z 1606/1712 05015G25KT P6SM VCSH SCT018 SCT030 BKN050
      TEMPO 1606/1610 4SM SHRA BKN015 OVC030
     FM161000 06013KT P6SM VCSH FEW018 SCT030
     FM170100 07015G25KT P6SM VCSH SCT024=

USA.gov is the U.S. government's official web portal to all federal, state and local government web resources and services.